| time (UTC) | temp F | wind direction | speed MPH | gust MPH | rain 1hr in | rain 24hr in | rain mn in | humidity % | barometer mb |
| 20260906065520 | 77 | 182 | 1.0 | 2.0 | 0.00 | 0.00 | 0.00 | 53 | 1021.2 |
| 20260906064533 | 79 | 168 | 1.0 | 1.0 | 0.00 | 0.00 | 0.00 | 55 | 1021.2 |
| 20260906063527 | 76 | 157 | 0.0 | 1.0 | 0.00 | 0.00 | 0.00 | 56 | 1021.1 |
| 20260906062519 | 76 | 154 | 0.0 | 1.0 | 0.00 | 0.00 | 0.00 | 58 | 1021.1 |
| 20260906061532 | 77 | 0.0 | 0.0 | 0.00 | 0.00 | 0.00 | 57 | 1020.9 | |
| 20260906060526 | 77 | 0.0 | 0.0 | 0.00 | 0.00 | 0.00 | 57 | 1020.9 | |
| 20260906055541 | 75 | 29 | 0.0 | 1.0 | 0.00 | 0.00 | 0.00 | 61 | 1020.9 |
| 20260906054613 | 73 | 0.0 | 0.0 | 0.00 | 0.00 | 0.00 | 67 | 1020.8 | |
| 20260906053528 | 71 | 0.0 | 0.0 | 0.00 | 0.00 | 0.00 | 68 | 1020.8 | |
| 20260906052520 | 71 | 29 | 0.0 | 1.0 | 0.00 | 0.00 | 0.00 | 69 | 1020.7 |
| 20260906051535 | 70 | 29 | 0.0 | 1.0 | 0.00 | 0.00 | 0.00 | 70 | 1020.8 |
| 20260906050527 | 69 | 42 | 1.0 | 2.0 | 0.00 | 0.00 | 0.00 | 72 | 1020.6 |
| 20260906045521 | 68 | 57 | 0.0 | 1.0 | 0.00 | 0.00 | 0.00 | 74 | 1020.6 |
| 20260906044534 | 68 | 57 | 1.0 | 1.0 | 0.00 | 0.00 | 0.00 | 72 | 1020.6 |
| 20260906043527 | 68 | 59 | 0.0 | 1.0 | 0.00 | 0.00 | 0.00 | 72 | 1020.6 |
| 20260906042522 | 68 | 72 | 1.0 | 1.0 | 0.00 | 0.00 | 0.00 | 72 | 1020.6 |
| 20260906040528 | 68 | 276 | 0.0 | 1.0 | 0.00 | 0.00 | 0.00 | 73 | 1020.5 |
| 20260906035525 | 68 | 276 | 1.0 | 2.0 | 0.00 | 0.00 | 0.00 | 73 | 1020.4 |
| 20260906034537 | 69 | 62 | 1.0 | 2.0 | 0.00 | 0.00 | 0.00 | 70 | 1020.2 |
| 20260906033528 | 69 | 68 | 1.0 | 2.0 | 0.00 | 0.00 | 0.00 | 70 | 1020.3 |
| 20260906032522 | 67 | 57 | 0.0 | 2.0 | 0.00 | 0.00 | 0.00 | 76 | 1020.4 |
| 20260906031536 | 67 | 345 | 1.0 | 2.0 | 0.00 | 0.00 | 0.00 | 78 | 1020.3 |
| 20260906030529 | 67 | 90 | 1.0 | 2.0 | 0.00 | 0.00 | 0.00 | 77 | 1020.4 |
| 20260906025523 | 68 | 109 | 0.0 | 1.0 | 0.00 | 0.00 | 0.00 | 77 | 1020.4 |
| 20260906024536 | 69 | 109 | 0.0 | 1.0 | 0.00 | 0.00 | 0.00 | 74 | 1020.5 |
| 20260906023529 | 69 | 75 | 1.0 | 3.0 | 0.00 | 0.00 | 0.00 | 73 | 1020.5 |
| 20260906022524 | 69 | 68 | 1.0 | 2.0 | 0.00 | 0.00 | 0.00 | 72 | 1020.4 |
| 20260906021516 | 69 | 28 | 1.0 | 1.0 | 0.00 | 0.00 | 0.00 | 75 | 1020.4 |
| 20260906020534 | 70 | 324 | 1.0 | 2.0 | 0.00 | 0.00 | 0.00 | 73 | 1020.4 |
| 20260906015523 | 69 | 317 | 1.0 | 2.0 | 0.00 | 0.00 | 0.00 | 74 | 1020.4 |
| 20260906014517 | 69 | 304 | 1.0 | 1.0 | 0.00 | 0.00 | 0.00 | 73 | 1020.4 |
| 20260906013530 | 68 | 304 | 0.0 | 1.0 | 0.00 | 0.00 | 0.00 | 73 | 1020.4 |
| 20260906012524 | 68 | 328 | 1.0 | 2.0 | 0.00 | 0.00 | 0.00 | 72 | 1020.5 |
| 20260906011517 | 68 | 316 | 1.0 | 2.0 | 0.00 | 0.00 | 0.00 | 74 | 1020.5 |
| 20260906010612 | 68 | 331 | 2.0 | 2.0 | 0.00 | 0.00 | 0.00 | 74 | 1020.4 |
| 20260906005523 | 68 | 277 | 1.0 | 1.0 | 0.00 | 0.00 | 0.00 | 74 | 1020.5 |
| 20260906004516 | 68 | 102 | 0.0 | 1.0 | 0.00 | 0.00 | 0.00 | 74 | 1020.6 |
| 20260906003530 | 68 | 103 | 1.0 | 1.0 | 0.00 | 0.00 | 0.00 | 74 | 1020.6 |
| 20260906002524 | 69 | 103 | 0.0 | 1.0 | 0.00 | 0.00 | 0.00 | 74 | 1020.5 |
| 20260906001537 | 70 | 105 | 0.0 | 1.0 | 0.00 | 0.00 | 0.00 | 71 | 1020.5 |
| 20260906000531 | 71 | 341 | 1.0 | 1.0 | 0.00 | 0.00 | 0.00 | 70 | 1020.7 |
| 20260905235544 | 71 | 63 | 0.0 | 1.0 | 0.00 | 0.00 | 0.00 | 70 | 1020.7 |
| 20260905234517 | 71 | 61 | 0.0 | 1.0 | 0.00 | 0.00 | 0.00 | 70 | 1020.8 |
| 20260905233531 | 72 | 63 | 0.0 | 1.0 | 0.00 | 0.00 | 0.00 | 70 | 1020.9 |
| 20260905232524 | 72 | 77 | 0.0 | 1.0 | 0.00 | 0.00 | 0.00 | 70 | 1020.8 |
| 20260905231518 | 73 | 58 | 1.0 | 2.0 | 0.00 | 0.00 | 0.00 | 69 | 1020.8 |
| 20260905230533 | 73 | 55 | 1.0 | 3.0 | 0.00 | 0.00 | 0.00 | 69 | 1020.7 |
| 20260905225525 | 73 | 335 | 2.0 | 4.0 | 0.00 | 0.00 | 0.00 | 68 | 1020.6 |
| 20260905224540 | 73 | 335 | 1.0 | 3.0 | 0.00 | 0.00 | 0.00 | 68 | 1020.8 |
| 20260905223534 | 73 | 1 | 1.0 | 3.0 | 0.00 | 0.00 | 0.00 | 68 | 1020.7 |
| 20260905222529 | 72 | 338 | 2.0 | 6.0 | 0.00 | 0.00 | 0.00 | 69 | 1020.8 |
| 20260905221539 | 72 | 20 | 1.0 | 3.0 | 0.00 | 0.00 | 0.00 | 69 | 1020.7 |
| 20260905220535 | 72 | 323 | 1.0 | 3.0 | 0.00 | 0.00 | 0.00 | 71 | 1020.6 |
| 20260905215524 | 72 | 322 | 1.0 | 2.0 | 0.00 | 0.00 | 0.00 | 73 | 1020.5 |
| 20260905214531 | 72 | 8 | 1.0 | 2.0 | 0.00 | 0.00 | 0.00 | 74 | 1020.6 |
| 20260905213518 | 72 | 352 | 0.0 | 1.0 | 0.00 | 0.00 | 0.00 | 75 | 1020.6 |
| 20260905212526 | 72 | 277 | 1.0 | 1.0 | 0.00 | 0.00 | 0.00 | 74 | 1020.8 |
| 20260905211518 | 73 | 286 | 1.0 | 1.0 | 0.00 | 0.00 | 0.00 | 72 | 1020.6 |
| 20260905210611 | 73 | 48 | 0.0 | 1.0 | 0.00 | 0.00 | 0.00 | 73 | 1020.6 |
| 20260905205523 | 74 | 337 | 1.0 | 2.0 | 0.00 | 0.00 | 0.00 | 72 | 1020.6 |
| 20260905204517 | 74 | 321 | 1.0 | 4.0 | 0.00 | 0.00 | 0.00 | 72 | 1020.4 |
| 20260905203551 | 74 | 285 | 1.0 | 2.0 | 0.00 | 0.00 | 0.00 | 70 | 1020.4 |
| 20260905202524 | 75 | 333 | 1.0 | 4.0 | 0.00 | 0.00 | 0.00 | 69 | 1020.5 |
| 20260905201517 | 75 | 309 | 1.0 | 8.0 | 0.00 | 0.00 | 0.00 | 69 | 1020.6 |
| 20260905200531 | 75 | 336 | 2.0 | 6.0 | 0.00 | 0.00 | 0.00 | 68 | 1020.5 |
| 20260905195524 | 75 | 285 | 2.0 | 4.0 | 0.00 | 0.00 | 0.00 | 68 | 1020.6 |
| 20260905194537 | 75 | 262 | 2.0 | 3.0 | 0.00 | 0.00 | 0.00 | 67 | 1020.4 |
| 20260905193531 | 76 | 222 | 1.0 | 4.0 | 0.00 | 0.00 | 0.00 | 66 | 1020.4 |
| 20260905192524 | 76 | 293 | 2.0 | 6.0 | 0.00 | 0.00 | 0.00 | 65 | 1020.3 |
| 20260905191518 | 76 | 344 | 2.0 | 8.0 | 0.00 | 0.00 | 0.00 | 63 | 1020.2 |
| 20260905190533 | 76 | 315 | 2.0 | 4.0 | 0.00 | 0.00 | 0.00 | 61 | 1020.2 |
| 20260905185525 | 77 | 253 | 1.0 | 4.0 | 0.00 | 0.00 | 0.00 | 60 | 1020.1 |
| 20260905184518 | 77 | 255 | 2.0 | 4.0 | 0.00 | 0.00 | 0.00 | 58 | 1019.9 |
| 20260905183532 | 77 | 269 | 2.0 | 3.0 | 0.00 | 0.00 | 0.00 | 57 | 1019.9 |
| 20260905182545 | 78 | 268 | 2.0 | 3.0 | 0.00 | 0.00 | 0.00 | 54 | 1019.9 |
| 20260905181519 | 79 | 264 | 2.0 | 3.0 | 0.00 | 0.00 | 0.00 | 50 | 1019.6 |
| 20260905180534 | 79 | 257 | 2.0 | 4.0 | 0.00 | 0.00 | 0.00 | 50 | 1019.7 |
| 20260905175526 | 80 | 256 | 2.0 | 3.0 | 0.00 | 0.00 | 0.00 | 50 | 1019.6 |
| 20260905174519 | 79 | 272 | 1.0 | 2.0 | 0.00 | 0.00 | 0.00 | 52 | 1019.4 |
| 20260905173614 | 80 | 247 | 1.0 | 2.0 | 0.00 | 0.00 | 0.00 | 51 | 1019.4 |
| 20260905172526 | 82 | 231 | 1.0 | 1.0 | 0.00 | 0.00 | 0.00 | 48 | 1019.3 |
| 20260905171542 | 83 | 278 | 1.0 | 2.0 | 0.00 | 0.00 | 0.00 | 46 | 1019.3 |
| 20260905170540 | 84 | 309 | 1.0 | 4.0 | 0.00 | 0.00 | 0.00 | 45 | 1019.3 |
| 20260905165527 | 86 | 303 | 2.0 | 6.0 | 0.00 | 0.00 | 0.00 | 42 | 1019.1 |
| 20260905164520 | 87 | 286 | 1.0 | 2.0 | 0.00 | 0.00 | 0.00 | 39 | 1019.2 |
| 20260905163533 | 88 | 315 | 1.0 | 3.0 | 0.00 | 0.00 | 0.00 | 37 | 1019.1 |
| 20260905162528 | 88 | 307 | 2.0 | 3.0 | 0.00 | 0.00 | 0.00 | 37 | 1019.1 |
| 20260905161544 | 89 | 311 | 2.0 | 7.0 | 0.00 | 0.00 | 0.00 | 37 | 1019.1 |
| 20260905160535 | 90 | 330 | 2.0 | 6.0 | 0.00 | 0.00 | 0.00 | 37 | 1019.2 |
| 20260905155527 | 90 | 347 | 2.0 | 6.0 | 0.00 | 0.00 | 0.00 | 38 | 1019.1 |
| 20260905154521 | 90 | 299 | 2.0 | 6.0 | 0.00 | 0.00 | 0.00 | 39 | 1019.3 |
| 20260905153535 | 90 | 31 | 2.0 | 4.0 | 0.00 | 0.00 | 0.00 | 39 | 1019.3 |
| 20260905152528 | 90 | 322 | 2.0 | 6.0 | 0.00 | 0.00 | 0.00 | 39 | 1019.2 |
| 20260905151522 | 90 | 330 | 2.0 | 8.0 | 0.00 | 0.00 | 0.00 | 39 | 1019.3 |
| 20260905150536 | 91 | 348 | 4.0 | 9.0 | 0.00 | 0.00 | 0.00 | 37 | 1019.2 |
| 20260905145528 | 92 | 319 | 3.0 | 6.0 | 0.00 | 0.00 | 0.00 | 35 | 1019.2 |
| 20260905144522 | 92 | 285 | 3.0 | 7.0 | 0.00 | 0.00 | 0.00 | 34 | 1019.1 |
| 20260905143535 | 93 | 278 | 3.0 | 7.0 | 0.00 | 0.00 | 0.00 | 33 | 1019.3 |
| 20260905142530 | 92 | 267 | 4.0 | 9.0 | 0.00 | 0.00 | 0.00 | 35 | 1019.3 |
| 20260905141543 | 92 | 278 | 4.0 | 8.0 | 0.00 | 0.00 | 0.00 | 34 | 1019.3 |
| 20260905140536 | 93 | 234 | 3.0 | 8.0 | 0.00 | 0.00 | 0.00 | 32 | 1019.2 |
| 20260905135529 | 92 | 219 | 4.0 | 9.0 | 0.00 | 0.00 | 0.00 | 33 | 1019.3 |
| 20260905134522 | 93 | 244 | 2.0 | 6.0 | 0.00 | 0.00 | 0.00 | 33 | 1019.5 |
| 20260905133516 | 94 | 259 | 2.0 | 4.0 | 0.00 | 0.00 | 0.00 | 33 | 1019.4 |
| 20260905132531 | 93 | 243 | 3.0 | 8.0 | 0.00 | 0.00 | 0.00 | 33 | 1019.5 |
| 20260905131525 | 92 | 228 | 5.0 | 11.0 | 0.00 | 0.00 | 0.00 | 33 | 1019.5 |
| 20260905130538 | 93 | 220 | 5.0 | 11.0 | 0.00 | 0.00 | 0.00 | 33 | 1019.6 |
| 20260905125531 | 92 | 220 | 4.0 | 10.0 | 0.00 | 0.00 | 0.00 | 31 | 1019.6 |
| 20260905124526 | 93 | 210 | 3.0 | 6.0 | 0.00 | 0.00 | 0.00 | 29 | 1019.7 |
| 20260905123519 | 92 | 233 | 4.0 | 9.0 | 0.00 | 0.00 | 0.00 | 28 | 1019.7 |
| 20260905122531 | 93 | 240 | 3.0 | 7.0 | 0.00 | 0.00 | 0.00 | 28 | 1019.8 |
| 20260905121524 | 93 | 234 | 3.0 | 7.0 | 0.00 | 0.00 | 0.00 | 27 | 1020.0 |
| 20260905120538 | 92 | 271 | 3.0 | 7.0 | 0.00 | 0.00 | 0.00 | 27 | 1020.0 |
| 20260905115532 | 92 | 244 | 4.0 | 9.0 | 0.00 | 0.00 | 0.00 | 26 | 1020.0 |
| 20260905114625 | 93 | 219 | 2.0 | 6.0 | 0.00 | 0.00 | 0.00 | 26 | 1020.0 |
| 20260905113518 | 92 | 233 | 4.0 | 11.0 | 0.00 | 0.00 | 0.00 | 27 | 1020.0 |
| 20260905111525 | 92 | 246 | 4.0 | 8.0 | 0.00 | 0.00 | 0.00 | 27 | 1020.1 |
| 20260905110519 | 91 | 224 | 5.0 | 10.0 | 0.00 | 0.00 | 0.00 | 29 | 1020.1 |
| 20260905105533 | 91 | 232 | 4.0 | 13.0 | 0.00 | 0.00 | 0.00 | 28 | 1020.2 |
| 20260905104526 | 91 | 241 | 4.0 | 9.0 | 0.00 | 0.00 | 0.00 | 29 | 1020.2 |
| 20260905103519 | 91 | 231 | 3.0 | 8.0 | 0.00 | 0.00 | 0.00 | 29 | 1020.2 |
| 20260905102615 | 91 | 252 | 2.0 | 7.0 | 0.00 | 0.00 | 0.00 | 29 | 1020.2 |
| 20260905101527 | 90 | 225 | 4.0 | 8.0 | 0.00 | 0.00 | 0.00 | 29 | 1020.2 |
| 20260905100520 | 91 | 204 | 2.0 | 6.0 | 0.00 | 0.00 | 0.00 | 29 | 1020.5 |
| 20260905095533 | 90 | 222 | 3.0 | 7.0 | 0.00 | 0.00 | 0.00 | 29 | 1020.5 |
| 20260905094527 | 89 | 206 | 3.0 | 7.0 | 0.00 | 0.00 | 0.00 | 31 | 1020.4 |
| 20260905093522 | 89 | 206 | 2.0 | 4.0 | 0.00 | 0.00 | 0.00 | 33 | 1020.5 |
| 20260905092534 | 88 | 230 | 1.0 | 3.0 | 0.00 | 0.00 | 0.00 | 31 | 1020.5 |
| 20260905091527 | 88 | 276 | 2.0 | 4.0 | 0.00 | 0.00 | 0.00 | 32 | 1020.6 |
| 20260905090520 | 88 | 234 | 1.0 | 3.0 | 0.00 | 0.00 | 0.00 | 34 | 1020.4 |
| 20260905085534 | 86 | 214 | 1.0 | 3.0 | 0.00 | 0.00 | 0.00 | 35 | 1020.4 |
| 20260905084526 | 87 | 277 | 2.0 | 4.0 | 0.00 | 0.00 | 0.00 | 36 | 1020.4 |
| 20260905083519 | 87 | 217 | 1.0 | 3.0 | 0.00 | 0.00 | 0.00 | 36 | 1020.5 |
| 20260905082533 | 86 | 212 | 1.0 | 3.0 | 0.00 | 0.00 | 0.00 | 37 | 1020.4 |
| 20260905081526 | 86 | 211 | 1.0 | 3.0 | 0.00 | 0.00 | 0.00 | 39 | 1020.4 |
| 20260905080519 | 85 | 195 | 1.0 | 2.0 | 0.00 | 0.00 | 0.00 | 44 | 1020.3 |
| 20260905075534 | 84 | 188 | 1.0 | 2.0 | 0.00 | 0.00 | 0.00 | 46 | 1020.3 |
| 20260905074530 | 85 | 179 | 1.0 | 2.0 | 0.00 | 0.00 | 0.00 | 47 | 1020.3 |
| 20260905073520 | 84 | 175 | 1.0 | 2.0 | 0.00 | 0.00 | 0.00 | 46 | 1020.2 |
| 20260905072534 | 83 | 178 | 1.0 | 2.0 | 0.00 | 0.00 | 0.00 | 46 | 1020.3 |
| 20260905071526 | 85 | 135 | 0.0 | 1.0 | 0.00 | 0.00 | 0.00 | 43 | 1020.4 |
| 20260905070520 | 84 | 125 | 1.0 | 1.0 | 0.00 | 0.00 | 0.00 | 44 | 1020.4 |